createdAt,value
2022-12-27T00:00:51.388Z,6.35
2022-12-27T00:01:51.380Z,6.32
2022-12-27T00:02:51.407Z,6.33
2022-12-27T00:03:51.324Z,6.32
2022-12-27T00:04:51.317Z,6.32
2022-12-27T00:05:51.293Z,6.30
2022-12-27T00:06:51.277Z,6.32
2022-12-27T00:07:51.269Z,6.30
2022-12-27T00:08:58.316Z,6.29
2022-12-27T00:09:51.263Z,6.28
2022-12-27T00:10:51.233Z,6.29
2022-12-27T00:11:56.342Z,6.28
2022-12-27T00:12:52.224Z,6.26
2022-12-27T00:13:51.201Z,6.29
2022-12-27T00:14:51.206Z,6.25
2022-12-27T00:15:51.171Z,6.25
2022-12-27T00:16:51.172Z,6.25
2022-12-27T00:17:51.156Z,6.22
2022-12-27T00:18:51.120Z,6.22
2022-12-27T00:19:51.129Z,6.22
2022-12-27T00:20:51.165Z,6.19
2022-12-27T00:21:51.211Z,6.16
2022-12-27T00:22:51.069Z,6.14
2022-12-27T00:23:51.079Z,6.13
2022-12-27T00:24:51.062Z,6.11
2022-12-27T00:25:51.052Z,6.09
2022-12-27T00:26:51.052Z,6.06
2022-12-27T00:27:51.013Z,6.07
2022-12-27T00:28:51.021Z,6.07
2022-12-27T00:29:50.994Z,6.07
2022-12-27T00:30:50.972Z,6.01
2022-12-27T00:31:51.029Z,6.03
2022-12-27T00:32:50.951Z,5.98
2022-12-27T00:33:50.951Z,5.96
2022-12-27T00:34:50.921Z,5.93
2022-12-27T00:35:50.921Z,5.89
2022-12-27T00:36:50.886Z,5.88
2022-12-27T00:37:50.890Z,5.85
2022-12-27T00:38:50.880Z,5.81
2022-12-27T00:39:50.863Z,5.81
2022-12-27T00:40:50.861Z,5.82
2022-12-27T00:41:50.847Z,5.78
2022-12-27T00:42:50.825Z,5.81
2022-12-27T00:43:50.822Z,5.81
2022-12-27T00:44:50.805Z,5.78
2022-12-27T00:45:50.824Z,5.75
2022-12-27T00:46:50.803Z,5.74
2022-12-27T00:47:50.761Z,5.71
2022-12-27T00:48:50.745Z,5.68
2022-12-27T00:49:50.757Z,5.67
2022-12-27T00:50:50.731Z,5.67
2022-12-27T00:51:50.718Z,5.66
2022-12-27T00:52:50.699Z,5.68
2022-12-27T00:53:50.701Z,5.66
2022-12-27T00:54:50.686Z,5.68
2022-12-27T00:55:50.674Z,5.67
2022-12-27T00:56:50.713Z,5.67
2022-12-27T00:57:50.638Z,5.68
2022-12-27T00:58:50.615Z,5.66
2022-12-27T00:59:50.616Z,5.63
2022-12-27T01:00:50.643Z,5.63
2022-12-27T01:01:50.704Z,5.64
2022-12-27T01:02:50.560Z,5.60
2022-12-27T01:03:50.583Z,5.57
2022-12-27T01:04:50.546Z,5.55
2022-12-27T01:05:50.540Z,5.52
2022-12-27T01:06:50.513Z,5.49
2022-12-27T01:07:50.515Z,5.48
2022-12-27T01:08:50.488Z,5.45
2022-12-27T01:09:50.482Z,5.40
2022-12-27T01:10:50.463Z,5.37
2022-12-27T01:11:50.451Z,5.37
2022-12-27T01:12:50.422Z,5.34
2022-12-27T01:13:50.444Z,5.34
2022-12-27T01:14:50.402Z,5.34
2022-12-27T01:15:50.401Z,5.34
2022-12-27T01:16:50.422Z,5.34
2022-12-27T01:17:50.372Z,5.34
2022-12-27T01:18:50.370Z,5.30
2022-12-27T01:19:50.363Z,5.27
2022-12-27T01:20:50.336Z,5.22
2022-12-27T01:21:50.323Z,5.22
2022-12-27T01:22:50.307Z,5.19
2022-12-27T01:23:50.318Z,5.19
2022-12-27T01:24:50.282Z,5.16
2022-12-27T01:25:50.305Z,5.17
2022-12-27T01:26:50.263Z,5.17
2022-12-27T01:27:50.253Z,5.16
2022-12-27T01:28:50.222Z,5.14
2022-12-27T01:29:50.214Z,5.12
2022-12-27T01:30:50.202Z,5.12
2022-12-27T01:31:50.285Z,5.10
2022-12-27T01:32:50.173Z,5.07
2022-12-27T01:33:50.175Z,5.07
2022-12-27T01:34:50.142Z,5.05
2022-12-27T01:35:50.155Z,5.04
2022-12-27T01:36:50.136Z,5.05
2022-12-27T01:37:50.145Z,5.07
2022-12-27T01:38:50.106Z,5.07
2022-12-27T01:39:50.123Z,5.02
2022-12-27T01:40:50.075Z,4.99
2022-12-27T01:41:50.075Z,4.95
2022-12-27T01:42:50.047Z,4.92
2022-12-27T01:43:50.043Z,4.89
2022-12-27T01:44:50.060Z,4.88
2022-12-27T01:45:50.102Z,4.88
2022-12-27T01:46:49.985Z,4.88
2022-12-27T01:47:49.985Z,4.86
2022-12-27T01:48:49.986Z,4.86
2022-12-27T01:49:49.965Z,4.84
2022-12-27T01:50:49.947Z,4.83
2022-12-27T01:51:49.954Z,4.83
2022-12-27T01:52:49.924Z,4.83
2022-12-27T01:53:49.912Z,4.80
2022-12-27T01:54:49.898Z,4.79
2022-12-27T01:55:49.901Z,4.76
2022-12-27T01:56:49.852Z,4.73
2022-12-27T01:57:49.853Z,4.72
2022-12-27T01:58:49.830Z,4.72
2022-12-27T01:59:49.831Z,4.69
2022-12-27T02:00:49.925Z,4.65
2022-12-27T02:01:49.909Z,4.64
2022-12-27T02:02:49.829Z,4.61
2022-12-27T02:03:49.782Z,4.59
2022-12-27T02:04:49.755Z,4.59
2022-12-27T02:05:49.754Z,4.57
2022-12-27T02:06:49.752Z,4.54
2022-12-27T02:07:49.732Z,4.52
2022-12-27T02:08:49.699Z,4.51
2022-12-27T02:09:49.692Z,4.50
2022-12-27T02:10:49.676Z,4.50
2022-12-27T02:11:49.693Z,4.52
2022-12-27T02:12:49.656Z,4.55
2022-12-27T02:13:49.651Z,4.55
2022-12-27T02:14:49.621Z,4.52
2022-12-27T02:15:49.628Z,4.51
2022-12-27T02:16:49.637Z,4.50
2022-12-27T02:17:49.603Z,4.50
2022-12-27T02:18:49.581Z,4.44
2022-12-27T02:19:49.581Z,4.44
2022-12-27T02:20:49.551Z,4.42
2022-12-27T02:21:49.562Z,4.40
2022-12-27T02:22:50.349Z,4.40
2022-12-27T02:23:49.543Z,4.43
2022-12-27T02:24:49.521Z,4.51
2022-12-27T02:25:49.586Z,4.50
2022-12-27T02:26:49.497Z,4.50
2022-12-27T02:27:49.501Z,4.44
2022-12-27T02:28:49.469Z,4.47
2022-12-27T02:29:49.472Z,4.47
2022-12-27T02:30:49.458Z,4.46
2022-12-27T02:31:49.420Z,4.44
2022-12-27T02:32:49.424Z,4.42
2022-12-27T02:33:49.430Z,4.42
2022-12-27T02:34:49.392Z,4.39
2022-12-27T02:35:49.382Z,4.39
2022-12-27T02:36:49.350Z,4.40
2022-12-27T02:37:49.332Z,4.42
2022-12-27T02:38:49.373Z,4.42
2022-12-27T02:39:49.314Z,4.40
2022-12-27T02:40:49.280Z,4.37
2022-12-27T02:41:49.271Z,4.34
2022-12-27T02:42:49.261Z,4.34
2022-12-27T02:43:49.273Z,4.29
2022-12-27T02:44:49.236Z,4.28
2022-12-27T02:45:49.240Z,4.25
2022-12-27T02:46:49.202Z,4.25
2022-12-27T02:47:49.201Z,4.26
2022-12-27T02:48:49.183Z,4.28
2022-12-27T02:49:49.213Z,4.28
2022-12-27T02:50:49.153Z,4.26
2022-12-27T02:51:49.161Z,4.24
2022-12-27T02:52:49.131Z,4.21
2022-12-27T02:53:49.100Z,4.19
2022-12-27T02:54:49.119Z,4.21
2022-12-27T02:55:49.089Z,4.21
2022-12-27T02:56:49.093Z,4.21
2022-12-27T02:57:49.071Z,4.22
2022-12-27T02:58:49.061Z,4.21
2022-12-27T02:59:49.033Z,4.19
2022-12-27T03:00:49.051Z,4.16
2022-12-27T03:01:49.150Z,4.16
2022-12-27T03:02:49.032Z,4.19
2022-12-27T03:03:48.991Z,4.19
2022-12-27T03:04:48.979Z,4.16
2022-12-27T03:05:48.958Z,4.18
2022-12-27T03:06:48.971Z,4.14
2022-12-27T03:07:48.934Z,4.14
2022-12-27T03:08:48.934Z,4.14
2022-12-27T03:09:48.920Z,4.12
2022-12-27T03:10:48.899Z,4.12
2022-12-27T03:11:48.871Z,4.14
2022-12-27T03:12:48.891Z,4.15
2022-12-27T03:13:48.861Z,4.12
2022-12-27T03:14:48.858Z,4.10
2022-12-27T03:15:48.948Z,4.12
2022-12-27T03:16:48.841Z,4.14
2022-12-27T03:17:48.821Z,4.14
2022-12-27T03:18:48.802Z,4.14
2022-12-27T03:19:48.781Z,4.14
2022-12-27T03:20:48.781Z,4.12
2022-12-27T03:21:48.752Z,4.10
2022-12-27T03:22:48.752Z,4.08
2022-12-27T03:23:48.749Z,4.07
2022-12-27T03:24:48.721Z,4.06
2022-12-27T03:25:48.699Z,4.08
2022-12-27T03:26:48.692Z,4.08
2022-12-27T03:27:48.680Z,4.08
2022-12-27T03:28:48.679Z,4.08
2022-12-27T03:29:48.670Z,4.06
2022-12-27T03:30:48.710Z,4.06
2022-12-27T03:31:48.630Z,4.06
2022-12-27T03:32:48.630Z,4.07
2022-12-27T03:33:48.614Z,4.06
2022-12-27T03:34:48.637Z,4.03
2022-12-27T03:35:48.580Z,4.03
2022-12-27T03:36:48.569Z,4.03
2022-12-27T03:37:48.565Z,4.03
2022-12-27T03:38:48.549Z,4.03
2022-12-27T03:39:48.538Z,4.01
2022-12-27T03:40:48.523Z,3.97
2022-12-27T03:41:48.497Z,3.97
2022-12-27T03:42:48.501Z,3.96
2022-12-27T03:43:48.468Z,3.92
2022-12-27T03:44:48.480Z,3.92
2022-12-27T03:45:48.478Z,3.89
2022-12-27T03:46:48.457Z,3.89
2022-12-27T03:47:48.438Z,3.88
2022-12-27T03:48:48.443Z,3.88
2022-12-27T03:49:48.411Z,3.86
2022-12-27T03:50:48.403Z,3.83
2022-12-27T03:51:48.403Z,3.82
2022-12-27T03:52:48.474Z,3.80
2022-12-27T03:53:48.358Z,3.82
2022-12-27T03:54:48.344Z,3.80
2022-12-27T03:55:48.327Z,3.79
2022-12-27T03:56:48.329Z,3.78
2022-12-27T03:57:48.326Z,3.76
2022-12-27T03:58:48.338Z,3.75
2022-12-27T03:59:48.279Z,3.75
2022-12-27T04:00:48.287Z,3.76
2022-12-27T04:01:48.301Z,3.72
2022-12-27T04:02:48.366Z,3.72
2022-12-27T04:03:48.236Z,3.71
2022-12-27T04:04:48.219Z,3.70
2022-12-27T04:05:48.188Z,3.72
2022-12-27T04:06:48.199Z,3.75
2022-12-27T04:07:48.188Z,3.75
2022-12-27T04:08:48.257Z,3.72
2022-12-27T04:09:48.151Z,3.75
2022-12-27T04:10:48.150Z,3.75
2022-12-27T04:11:48.136Z,3.71
2022-12-27T04:12:48.129Z,3.71
2022-12-27T04:13:48.109Z,3.68
2022-12-27T04:14:48.101Z,3.67
2022-12-27T04:15:48.134Z,3.64
2022-12-27T04:16:48.077Z,3.64
2022-12-27T04:17:48.080Z,3.67
2022-12-27T04:18:48.046Z,3.67
2022-12-27T04:19:48.026Z,3.65
2022-12-27T04:20:48.016Z,3.64
2022-12-27T04:21:47.999Z,3.62
2022-12-27T04:22:47.995Z,3.58
2022-12-27T04:23:48.053Z,3.54
2022-12-27T04:24:47.980Z,3.54
2022-12-27T04:25:47.945Z,3.52
2022-12-27T04:26:47.952Z,3.49
2022-12-27T04:27:47.929Z,3.46
2022-12-27T04:28:47.935Z,3.47
2022-12-27T04:29:47.899Z,3.49
2022-12-27T04:30:48.014Z,3.47
2022-12-27T04:31:47.888Z,3.49
2022-12-27T04:32:47.868Z,3.49
2022-12-27T04:33:47.920Z,3.47
2022-12-27T04:34:47.856Z,3.47
2022-12-27T04:35:47.816Z,3.49
2022-12-27T04:36:47.818Z,3.49
2022-12-27T04:37:47.797Z,3.49
2022-12-27T04:38:47.797Z,3.46
2022-12-27T04:39:47.793Z,3.46
2022-12-27T04:40:47.780Z,3.44
2022-12-27T04:41:47.791Z,3.44
2022-12-27T04:42:47.749Z,3.44
2022-12-27T04:43:47.729Z,3.49
2022-12-27T04:44:47.760Z,3.47
2022-12-27T04:45:47.707Z,3.49
2022-12-27T04:46:47.784Z,3.50
2022-12-27T04:47:47.668Z,3.53
2022-12-27T04:48:47.665Z,3.53
2022-12-27T04:49:47.687Z,3.53
2022-12-27T04:50:47.654Z,3.50
2022-12-27T04:51:47.616Z,3.49
2022-12-27T04:52:47.606Z,3.47
2022-12-27T04:53:47.593Z,3.50
2022-12-27T04:54:47.628Z,3.47
2022-12-27T04:55:47.567Z,3.50
2022-12-27T04:56:47.586Z,3.50
2022-12-27T04:57:47.556Z,3.49
2022-12-27T04:58:47.561Z,3.47
2022-12-27T04:59:47.547Z,3.44
2022-12-27T05:00:47.509Z,3.43
2022-12-27T05:01:47.656Z,3.42
2022-12-27T05:02:47.625Z,3.42
2022-12-27T05:03:47.516Z,3.42
2022-12-27T05:04:47.477Z,3.44
2022-12-27T05:05:47.439Z,3.44
2022-12-27T05:06:47.467Z,3.43
2022-12-27T05:07:47.418Z,3.44
2022-12-27T05:08:47.420Z,3.46
2022-12-27T05:09:47.393Z,3.49
2022-12-27T05:10:47.388Z,3.49
2022-12-27T05:11:47.387Z,3.49
2022-12-27T05:12:47.354Z,3.49
2022-12-27T05:13:47.335Z,3.49
2022-12-27T05:14:47.330Z,3.49
2022-12-27T05:15:47.371Z,3.49
2022-12-27T05:16:47.321Z,3.50
2022-12-27T05:17:47.284Z,3.52
2022-12-27T05:18:47.284Z,3.50
2022-12-27T05:19:47.255Z,3.54
2022-12-27T05:20:47.264Z,3.53
2022-12-27T05:21:47.239Z,3.50
2022-12-27T05:22:47.245Z,3.50
2022-12-27T05:23:47.213Z,3.50
2022-12-27T05:24:47.207Z,3.53
2022-12-27T05:25:47.206Z,3.54
2022-12-27T05:26:47.186Z,3.53
2022-12-27T05:27:47.164Z,3.57
2022-12-27T05:28:47.164Z,3.54
2022-12-27T05:29:47.147Z,3.53
2022-12-27T05:30:47.125Z,3.54
2022-12-27T05:31:47.126Z,3.57
2022-12-27T05:32:47.109Z,3.54
2022-12-27T05:33:47.074Z,3.53
2022-12-27T05:34:47.102Z,3.52
2022-12-27T05:35:47.063Z,3.50
2022-12-27T05:36:47.056Z,3.52
2022-12-27T05:37:53.111Z,3.50
2022-12-27T05:38:48.033Z,3.49
2022-12-27T05:39:47.065Z,3.49
2022-12-27T05:40:47.008Z,3.49
2022-12-27T05:41:46.987Z,3.52
2022-12-27T05:42:46.984Z,3.54
2022-12-27T05:43:46.961Z,3.54
2022-12-27T05:44:46.944Z,3.57
2022-12-27T05:45:46.931Z,3.58
2022-12-27T05:46:46.998Z,3.58
2022-12-27T05:47:46.911Z,3.57
2022-12-27T05:48:46.893Z,3.57
2022-12-27T05:49:46.873Z,3.57
2022-12-27T05:50:46.882Z,3.54
2022-12-27T05:51:46.851Z,3.53
2022-12-27T05:52:46.876Z,3.53
2022-12-27T05:53:46.838Z,3.57
2022-12-27T05:54:46.836Z,3.54
2022-12-27T05:55:46.803Z,3.50
2022-12-27T05:56:46.793Z,3.50
2022-12-27T05:57:46.790Z,3.52
2022-12-27T05:58:46.787Z,3.54
2022-12-27T05:59:46.764Z,3.57
2022-12-27T06:00:46.753Z,3.61
2022-12-27T06:01:46.881Z,3.58
2022-12-27T06:02:46.907Z,3.61
2022-12-27T06:03:46.713Z,3.61
2022-12-27T06:04:46.705Z,3.61
2022-12-27T06:05:46.691Z,3.61
2022-12-27T06:06:46.687Z,3.62
2022-12-27T06:07:46.652Z,3.62
2022-12-27T06:08:46.658Z,3.65
2022-12-27T06:09:46.665Z,3.62
2022-12-27T06:10:46.620Z,3.64
2022-12-27T06:11:46.601Z,3.64
2022-12-27T06:12:46.641Z,3.64
2022-12-27T06:13:46.587Z,3.60
2022-12-27T06:14:46.593Z,3.58
2022-12-27T06:15:46.600Z,3.57
2022-12-27T06:16:46.604Z,3.53
2022-12-27T06:17:46.530Z,3.52
2022-12-27T06:18:54.343Z,3.52
2022-12-27T06:19:46.504Z,3.50
2022-12-27T06:20:46.508Z,3.50
2022-12-27T06:21:46.527Z,3.49
2022-12-27T06:22:46.483Z,3.46
2022-12-27T06:23:46.523Z,3.40
2022-12-27T06:24:46.458Z,3.39
2022-12-27T06:25:46.435Z,3.39
2022-12-27T06:26:46.427Z,3.33
2022-12-27T06:27:46.427Z,3.30
2022-12-27T06:28:46.433Z,3.30
2022-12-27T06:29:46.431Z,3.30
2022-12-27T06:30:46.385Z,3.31
2022-12-27T06:31:46.413Z,3.28
2022-12-27T06:32:46.354Z,3.28
2022-12-27T06:33:46.390Z,3.25
2022-12-27T06:34:46.350Z,3.24
2022-12-27T06:35:46.304Z,3.21
2022-12-27T06:36:46.324Z,3.20
2022-12-27T06:37:46.300Z,3.18
2022-12-27T06:38:46.318Z,3.15
2022-12-27T06:39:46.262Z,3.15
2022-12-27T06:40:46.272Z,3.13
2022-12-27T06:41:46.251Z,3.13
2022-12-27T06:42:46.245Z,3.13
2022-12-27T06:43:46.246Z,3.12
2022-12-27T06:44:46.199Z,3.12
2022-12-27T06:45:46.347Z,3.10
2022-12-27T06:46:46.183Z,3.09
2022-12-27T06:47:46.219Z,3.09
2022-12-27T06:48:46.180Z,3.07
2022-12-27T06:49:46.141Z,3.07
2022-12-27T06:50:46.192Z,3.06
2022-12-27T06:51:46.133Z,3.06
2022-12-27T06:52:46.107Z,3.05
2022-12-27T06:53:46.098Z,3.03
2022-12-27T06:54:46.104Z,3.03
2022-12-27T06:55:46.061Z,3.03
2022-12-27T06:56:46.083Z,3.06
2022-12-27T06:57:46.057Z,3.05
2022-12-27T06:58:46.087Z,3.09
2022-12-27T06:59:49.513Z,3.12
2022-12-27T07:00:47.061Z,3.12
2022-12-27T07:01:46.054Z,3.12
2022-12-27T07:02:46.384Z,3.13
2022-12-27T07:03:45.951Z,3.20
2022-12-27T07:04:45.964Z,3.21
2022-12-27T07:05:46.001Z,3.24
2022-12-27T07:06:45.930Z,3.24
2022-12-27T07:07:45.923Z,3.27
2022-12-27T07:08:45.904Z,3.27
2022-12-27T07:09:45.935Z,3.28
2022-12-27T07:10:45.906Z,3.30
2022-12-27T07:11:45.893Z,3.33
2022-12-27T07:12:45.884Z,3.30
2022-12-27T07:13:45.844Z,3.30
2022-12-27T07:14:45.803Z,3.30
2022-12-27T07:15:45.842Z,3.31
2022-12-27T07:16:45.832Z,3.33
2022-12-27T07:17:46.597Z,3.34
2022-12-27T07:18:45.817Z,3.36
2022-12-27T07:19:45.784Z,3.36
2022-12-27T07:20:45.767Z,3.39
2022-12-27T07:21:45.757Z,3.40
2022-12-27T07:22:45.732Z,3.42
2022-12-27T07:23:45.727Z,3.43
2022-12-27T07:24:45.685Z,3.42
2022-12-27T07:25:45.708Z,3.42
2022-12-27T07:26:45.697Z,3.43
2022-12-27T07:27:45.662Z,3.47
2022-12-27T07:28:45.623Z,3.49
2022-12-27T07:29:45.996Z,3.47
2022-12-27T07:30:45.630Z,3.49
2022-12-27T07:31:45.642Z,3.49
2022-12-27T07:32:45.587Z,3.52
2022-12-27T07:33:45.592Z,3.57
2022-12-27T07:34:45.563Z,3.60
2022-12-27T07:35:45.564Z,3.60
2022-12-27T07:36:45.524Z,3.62
2022-12-27T07:37:45.543Z,3.64
2022-12-27T07:38:45.525Z,3.67
2022-12-27T07:39:45.495Z,3.67
2022-12-27T07:40:45.488Z,3.68
2022-12-27T07:41:45.474Z,3.70
2022-12-27T07:42:45.452Z,3.70
2022-12-27T07:43:45.498Z,3.68
2022-12-27T07:44:45.430Z,3.70
2022-12-27T07:45:45.490Z,3.72
2022-12-27T07:46:45.410Z,3.75
2022-12-27T07:47:45.389Z,3.78
2022-12-27T07:48:45.388Z,3.79
2022-12-27T07:49:45.411Z,3.80
2022-12-27T07:50:45.384Z,3.85
2022-12-27T07:51:45.354Z,3.83
2022-12-27T07:52:45.341Z,3.86
2022-12-27T07:53:45.360Z,3.86
2022-12-27T07:54:45.313Z,3.86
2022-12-27T07:55:45.330Z,3.88
2022-12-27T07:56:45.359Z,3.89
2022-12-27T07:57:45.542Z,3.89
2022-12-27T07:58:45.259Z,3.92
2022-12-27T07:59:45.270Z,3.96
2022-12-27T08:00:45.243Z,3.97
2022-12-27T08:01:45.324Z,3.98
2022-12-27T08:02:45.215Z,4.00
2022-12-27T08:03:45.202Z,4.01
2022-12-27T08:04:45.217Z,4.01
2022-12-27T08:05:45.214Z,4.03
2022-12-27T08:06:45.160Z,4.03
2022-12-27T08:07:45.712Z,4.04
2022-12-27T08:08:45.158Z,4.06
2022-12-27T08:09:45.146Z,4.10
2022-12-27T08:10:45.152Z,4.12
2022-12-27T08:11:45.141Z,4.12
2022-12-27T08:12:45.070Z,4.08
2022-12-27T08:13:46.012Z,4.14
2022-12-27T08:14:45.079Z,4.12
2022-12-27T08:15:45.072Z,4.14
2022-12-27T08:16:45.075Z,4.10
2022-12-27T08:17:45.052Z,4.08
2022-12-27T08:18:45.004Z,4.08
2022-12-27T08:19:45.004Z,4.10
2022-12-27T08:20:44.998Z,4.12
2022-12-27T08:21:44.972Z,4.12
2022-12-27T08:22:44.993Z,4.10
2022-12-27T08:23:44.978Z,4.10
2022-12-27T08:24:44.931Z,4.14
2022-12-27T08:25:48.775Z,4.15
2022-12-27T08:26:44.968Z,4.14
2022-12-27T08:27:44.901Z,4.10
2022-12-27T08:28:44.859Z,4.08
2022-12-27T08:29:44.863Z,4.08
2022-12-27T08:30:44.895Z,4.08
2022-12-27T08:31:44.872Z,4.08
2022-12-27T08:32:44.849Z,4.08
2022-12-27T08:33:44.841Z,4.03
2022-12-27T08:34:44.826Z,4.01
2022-12-27T08:35:53.670Z,4.01
2022-12-27T08:36:55.229Z,4.01
2022-12-27T08:37:45.784Z,4.03
2022-12-27T08:38:44.774Z,4.03
2022-12-27T08:39:44.760Z,4.03
2022-12-27T08:40:44.737Z,4.06
2022-12-27T08:41:44.730Z,4.04
2022-12-27T08:42:44.734Z,4.06
2022-12-27T08:43:44.713Z,4.08
2022-12-27T08:44:44.691Z,4.12
2022-12-27T08:45:44.771Z,4.12
2022-12-27T08:46:44.685Z,4.10
2022-12-27T08:47:44.659Z,4.12
2022-12-27T08:48:44.656Z,4.12
2022-12-27T08:49:44.634Z,4.10
2022-12-27T08:50:44.599Z,4.08
2022-12-27T08:51:44.649Z,4.14
2022-12-27T08:52:44.590Z,4.15
2022-12-27T08:53:44.593Z,4.14
2022-12-27T08:54:44.568Z,4.15
2022-12-27T08:55:44.567Z,4.18
2022-12-27T08:56:44.531Z,4.21
2022-12-27T08:57:44.524Z,4.18
2022-12-27T08:58:44.526Z,4.15
2022-12-27T08:59:44.516Z,4.15
2022-12-27T09:00:44.471Z,4.15
2022-12-27T09:01:44.614Z,4.12
2022-12-27T09:02:44.569Z,4.15
2022-12-27T09:03:44.492Z,4.15
2022-12-27T09:04:44.442Z,4.12
2022-12-27T09:05:44.448Z,4.15
2022-12-27T09:06:44.415Z,4.16
2022-12-27T09:07:44.428Z,4.19
2022-12-27T09:08:44.387Z,4.19
2022-12-27T09:09:44.361Z,4.22
2022-12-27T09:10:44.350Z,4.25
2022-12-27T09:11:44.339Z,4.28
2022-12-27T09:12:44.327Z,4.33
2022-12-27T09:13:44.332Z,4.33
2022-12-27T09:14:44.311Z,4.33
2022-12-27T09:15:44.333Z,4.34
2022-12-27T09:16:44.323Z,4.33
2022-12-27T09:17:44.257Z,4.34
2022-12-27T09:18:44.248Z,4.33
2022-12-27T09:19:44.224Z,4.34
2022-12-27T09:20:44.205Z,4.36
2022-12-27T09:21:44.228Z,4.40
2022-12-27T09:22:44.231Z,4.42
2022-12-27T09:23:44.186Z,4.44
2022-12-27T09:24:44.146Z,4.46
2022-12-27T09:25:44.279Z,4.47
2022-12-27T09:26:44.160Z,4.51
2022-12-27T09:27:44.131Z,4.52
2022-12-27T09:28:44.128Z,4.55
2022-12-27T09:29:48.280Z,4.59
2022-12-27T09:30:44.235Z,4.61
2022-12-27T09:31:44.073Z,4.64
2022-12-27T09:32:44.080Z,4.65
2022-12-27T09:33:44.054Z,4.69
2022-12-27T09:34:44.006Z,4.72
2022-12-27T09:35:44.010Z,4.75
2022-12-27T09:36:44.006Z,4.77
2022-12-27T09:37:44.004Z,4.77
2022-12-27T09:38:43.968Z,4.79
2022-12-27T09:39:43.958Z,4.83
2022-12-27T09:40:43.993Z,4.88
2022-12-27T09:42:53.523Z,4.94
2022-12-27T09:43:44.930Z,4.98
2022-12-27T09:44:43.909Z,5.02
2022-12-27T09:45:43.881Z,5.09
2022-12-27T09:46:43.940Z,5.10
2022-12-27T09:47:43.857Z,5.14
2022-12-27T09:48:43.846Z,5.22
2022-12-27T09:49:43.828Z,5.25
2022-12-27T09:50:43.833Z,5.27
2022-12-27T09:51:43.847Z,5.34
2022-12-27T09:52:43.814Z,5.46
2022-12-27T09:53:43.770Z,5.52
2022-12-27T09:54:43.759Z,5.55
2022-12-27T09:55:43.782Z,5.56
2022-12-27T09:57:44.735Z,5.53
2022-12-27T09:58:43.716Z,5.53
2022-12-27T09:59:44.378Z,5.56
2022-12-27T10:00:46.443Z,5.63
2022-12-27T10:01:43.777Z,5.63
2022-12-27T10:02:43.975Z,5.67
2022-12-27T10:03:43.670Z,5.71
2022-12-27T10:05:18.520Z,5.77
2022-12-27T10:05:44.729Z,5.82
2022-12-27T10:06:43.626Z,5.85
2022-12-27T10:07:43.610Z,5.86
2022-12-27T10:08:43.580Z,5.89
2022-12-27T10:09:43.597Z,5.92
2022-12-27T10:10:43.587Z,5.93
2022-12-27T10:11:43.568Z,5.98
2022-12-27T10:12:43.534Z,6.00
2022-12-27T10:13:43.521Z,6.01
2022-12-27T10:14:43.515Z,6.01
2022-12-27T10:15:43.525Z,6.03
2022-12-27T10:16:43.501Z,6.03
2022-12-27T10:17:46.891Z,6.03
2022-12-27T10:18:44.452Z,6.03
2022-12-27T10:19:43.469Z,6.04
2022-12-27T10:20:43.443Z,6.07
2022-12-27T10:21:43.441Z,6.07
2022-12-27T10:22:43.419Z,6.07
2022-12-27T10:23:43.401Z,6.09
2022-12-27T10:24:43.385Z,6.10
2022-12-27T10:25:43.380Z,6.10
2022-12-27T10:26:43.376Z,6.10
2022-12-27T10:27:43.374Z,6.10
2022-12-27T10:28:43.334Z,6.11
2022-12-27T10:29:43.337Z,6.11
2022-12-27T10:30:43.328Z,6.10
2022-12-27T10:31:43.452Z,6.11
2022-12-27T10:32:43.270Z,6.13
2022-12-27T10:33:43.292Z,6.14
2022-12-27T10:34:43.242Z,6.18
2022-12-27T10:35:43.275Z,6.19
2022-12-27T10:36:43.226Z,6.22
2022-12-27T10:37:43.220Z,6.29
2022-12-27T10:38:43.192Z,6.33
2022-12-27T10:39:43.206Z,6.43
2022-12-27T10:40:43.239Z,6.43
2022-12-27T10:41:43.159Z,6.44
2022-12-27T10:42:43.161Z,6.41
2022-12-27T10:43:43.146Z,6.43
2022-12-27T10:44:43.180Z,6.46
2022-12-27T10:45:43.134Z,6.51
2022-12-27T10:46:43.153Z,6.58
2022-12-27T10:47:43.099Z,6.61
2022-12-27T10:49:11.243Z,6.54
2022-12-27T10:49:44.081Z,6.50
2022-12-27T10:50:43.037Z,6.50
2022-12-27T10:51:43.030Z,6.44
2022-12-27T10:52:43.022Z,6.40
2022-12-27T10:53:43.012Z,6.36
2022-12-27T10:54:42.989Z,6.40
2022-12-27T10:55:42.993Z,6.41
2022-12-27T10:56:43.144Z,6.36
2022-12-27T10:57:43.021Z,6.33
2022-12-27T10:58:42.959Z,6.30
2022-12-27T10:59:42.979Z,6.28
2022-12-27T11:00:42.986Z,6.28
2022-12-27T11:01:43.069Z,6.26
2022-12-27T11:02:43.038Z,6.28
2022-12-27T11:03:42.877Z,6.29
2022-12-27T11:04:42.889Z,6.28
2022-12-27T11:05:42.847Z,6.30
2022-12-27T11:06:42.827Z,6.30
2022-12-27T11:07:42.829Z,6.30
2022-12-27T11:08:42.808Z,6.29
2022-12-27T11:09:48.410Z,6.26
2022-12-27T11:10:43.819Z,6.22
2022-12-27T11:11:42.814Z,6.22
2022-12-27T11:12:42.753Z,6.26
2022-12-27T11:13:42.774Z,6.25
2022-12-27T11:14:42.764Z,6.28
2022-12-27T11:15:42.730Z,6.29
2022-12-27T11:16:42.780Z,6.32
2022-12-27T11:17:42.730Z,6.33
2022-12-27T11:18:42.671Z,6.29
2022-12-27T11:19:42.657Z,6.32
2022-12-27T11:20:42.672Z,6.33
2022-12-27T11:21:42.644Z,6.36
2022-12-27T11:22:42.641Z,6.38
2022-12-27T11:23:42.613Z,6.38
2022-12-27T11:24:42.628Z,6.36
2022-12-27T11:25:42.600Z,6.33
2022-12-27T11:26:42.616Z,6.33
2022-12-27T11:27:42.560Z,6.35
2022-12-27T11:28:42.559Z,6.32
2022-12-27T11:29:42.529Z,6.32
2022-12-27T11:30:42.518Z,6.33
2022-12-27T11:31:42.625Z,6.30
2022-12-27T11:32:42.507Z,6.30
2022-12-27T11:33:42.493Z,6.30
2022-12-27T11:34:42.500Z,6.33
2022-12-27T11:35:42.470Z,6.36
2022-12-27T11:36:42.491Z,6.36
2022-12-27T11:37:42.454Z,6.35
2022-12-27T11:38:42.457Z,6.40
2022-12-27T11:39:42.431Z,6.40
2022-12-27T11:40:42.417Z,6.43
2022-12-27T11:41:42.423Z,6.47
2022-12-27T11:42:42.389Z,6.47
2022-12-27T11:43:42.366Z,6.43
2022-12-27T11:44:42.367Z,6.43
2022-12-27T11:45:42.347Z,6.44
2022-12-27T11:46:42.401Z,6.46
2022-12-27T11:47:42.297Z,6.47
2022-12-27T11:48:42.328Z,6.46
2022-12-27T11:49:42.284Z,6.44
2022-12-27T11:50:42.272Z,6.43
2022-12-27T11:51:42.247Z,6.43
2022-12-27T11:52:42.247Z,6.44
2022-12-27T11:53:42.265Z,6.44
2022-12-27T11:54:42.232Z,6.46
2022-12-27T11:55:42.214Z,6.48
2022-12-27T11:56:42.200Z,6.54
2022-12-27T11:57:42.193Z,6.53
2022-12-27T11:58:42.163Z,6.51
2022-12-27T11:59:42.168Z,6.53
2022-12-27T12:00:42.153Z,6.56
2022-12-27T12:01:42.218Z,6.58
2022-12-27T12:02:42.120Z,6.56
2022-12-27T12:03:42.151Z,6.51
2022-12-27T12:04:42.109Z,6.51
2022-12-27T12:05:42.113Z,6.48
2022-12-27T12:06:42.111Z,6.47
2022-12-27T12:07:42.047Z,6.47
2022-12-27T12:08:42.033Z,6.48
2022-12-27T12:09:42.013Z,6.50
2022-12-27T12:10:42.022Z,6.47
2022-12-27T12:11:42.020Z,6.44
2022-12-27T12:12:42.006Z,6.44
2022-12-27T12:13:41.979Z,6.43
2022-12-27T12:14:41.971Z,6.44
2022-12-27T12:15:41.945Z,6.44
2022-12-27T12:16:41.960Z,6.44
2022-12-27T12:17:41.922Z,6.46
2022-12-27T12:18:48.970Z,6.44
2022-12-27T12:19:41.860Z,6.44
2022-12-27T12:20:45.719Z,6.44
2022-12-27T12:21:42.841Z,6.46
2022-12-27T12:22:41.842Z,6.47
2022-12-27T12:23:41.822Z,6.48
2022-12-27T12:24:41.821Z,6.47
2022-12-27T12:25:41.783Z,6.48
2022-12-27T12:26:41.779Z,6.47
2022-12-27T12:27:41.760Z,6.46
2022-12-27T12:28:59.198Z,6.47
2022-12-27T12:29:42.770Z,6.46
2022-12-27T12:30:41.742Z,6.48
2022-12-27T12:31:41.807Z,6.50
2022-12-27T12:32:41.715Z,6.50
2022-12-27T12:33:41.705Z,6.53
2022-12-27T12:34:41.700Z,6.56
2022-12-27T12:35:41.723Z,6.54
2022-12-27T12:36:41.668Z,6.54
2022-12-27T12:37:41.640Z,6.54
2022-12-27T12:38:41.623Z,6.53
2022-12-27T12:39:41.610Z,6.51
2022-12-27T12:40:41.602Z,6.51
2022-12-27T12:41:41.572Z,6.50
2022-12-27T12:42:41.577Z,6.48
2022-12-27T12:43:41.553Z,6.50
2022-12-27T12:44:42.005Z,6.50
2022-12-27T12:45:41.596Z,6.50
2022-12-27T12:46:41.532Z,6.50
2022-12-27T12:47:41.515Z,6.48
2022-12-27T12:48:41.517Z,6.48
2022-12-27T12:49:41.489Z,6.50
2022-12-27T12:50:41.493Z,6.51
2022-12-27T12:51:41.479Z,6.54
2022-12-27T12:52:41.450Z,6.56
2022-12-27T12:53:41.422Z,6.59
2022-12-27T12:54:41.423Z,6.61
2022-12-27T12:55:41.424Z,6.65
2022-12-27T12:56:41.431Z,6.69
2022-12-27T12:57:41.371Z,6.76
2022-12-27T12:58:41.377Z,6.79
2022-12-27T12:59:41.344Z,6.77
2022-12-27T13:00:41.343Z,6.72
2022-12-27T13:01:46.625Z,6.69
2022-12-27T13:02:42.558Z,6.66
2022-12-27T13:03:41.384Z,6.66
2022-12-27T13:04:41.293Z,6.66
2022-12-27T13:05:41.296Z,6.66
2022-12-27T13:06:41.280Z,6.65
2022-12-27T13:07:41.261Z,6.66
2022-12-27T13:08:41.301Z,6.65
2022-12-27T13:09:41.236Z,6.62
2022-12-27T13:10:41.216Z,6.62
2022-12-27T13:11:41.198Z,6.66
2022-12-27T13:12:41.206Z,6.66
2022-12-27T13:13:41.163Z,6.71
2022-12-27T13:14:41.173Z,6.69
2022-12-27T13:15:41.150Z,6.66
2022-12-27T13:16:41.201Z,6.66
2022-12-27T13:17:41.241Z,6.68
2022-12-27T13:18:41.108Z,6.63
2022-12-27T13:19:41.123Z,6.63
2022-12-27T13:20:41.100Z,6.63